createdAt,value
2019-04-21T00:00:11.039Z,65.39917
2019-04-21T00:00:19.203Z,65.39917
2019-04-21T00:00:31.712Z,65.29541
2019-04-21T00:00:44.614Z,65.39917
2019-04-21T00:01:00.288Z,65.29541
2019-04-21T00:01:12.361Z,65.29541
2019-04-21T00:01:22.313Z,65.29541
2019-04-21T00:01:37.566Z,65.29541
2019-04-21T00:01:50.536Z,65.19165
2019-04-21T00:02:01.149Z,65.19165
2019-04-21T00:02:18.494Z,65.19165
2019-04-21T00:02:30.578Z,65.093994
2019-04-21T00:02:39.648Z,65.093994
2019-04-21T00:02:50.940Z,65.19165
2019-04-21T00:03:09.773Z,65.19165
2019-04-21T00:03:23.185Z,65.19165
2019-04-21T00:03:35.429Z,65.29541
2019-04-21T00:03:48.291Z,65.29541
2019-04-21T00:04:00.139Z,65.29541
2019-04-21T00:04:19.580Z,65.39917
2019-04-21T00:04:32.935Z,65.39917
2019-04-21T00:04:45.433Z,65.29541
2019-04-21T00:04:57.761Z,65.19165
2019-04-21T00:05:19.803Z,65.093994
2019-04-21T00:05:42.924Z,65.093994
2019-04-21T00:05:42.927Z,65.19165
2019-04-21T00:05:57.026Z,64.990234
2019-04-21T00:06:08.650Z,64.990234
2019-04-21T00:06:21.817Z,64.959717
2019-04-21T00:06:35.077Z,64.959717
2019-04-21T00:06:47.859Z,65.161133
2019-04-21T00:07:02.778Z,65.063477
2019-04-21T00:07:13.007Z,65.063477
2019-04-21T00:07:24.849Z,65.063477
2019-04-21T00:07:36.026Z,64.959717
2019-04-21T00:07:50.186Z,64.855957
2019-04-21T00:08:07.307Z,64.752197
2019-04-21T00:08:24.527Z,64.855957
2019-04-21T00:08:34.951Z,64.648438
2019-04-21T00:08:41.254Z,64.544678
2019-04-21T00:08:55.870Z,64.440918
2019-04-21T00:09:10.843Z,64.135742
2019-04-21T00:09:24.015Z,64.135742
2019-04-21T00:09:39.465Z,64.239502
2019-04-21T00:09:58.021Z,64.239502
2019-04-21T00:09:58.022Z,64.239502
2019-04-21T00:10:11.604Z,64.239502
2019-04-21T00:10:26.765Z,64.337158
2019-04-21T00:10:39.769Z,64.337158
2019-04-21T00:10:56.183Z,64.239502
2019-04-21T00:11:09.165Z,64.135742
2019-04-21T00:11:15.032Z,64.135742
2019-04-21T00:11:27.952Z,64.031982
2019-04-21T00:11:40.651Z,64.031982
2019-04-21T00:11:55.121Z,63.824463
2019-04-21T00:12:07.096Z,63.824463
2019-04-21T00:12:17.772Z,63.897705
2019-04-21T00:12:28.144Z,63.897705
2019-04-21T00:12:40.134Z,63.897705
2019-04-21T00:12:55.921Z,63.793945
2019-04-21T00:13:07.639Z,63.793945
2019-04-21T00:13:17.532Z,63.690186
2019-04-21T00:13:32.228Z,63.592529
2019-04-21T00:13:42.364Z,63.48877
2019-04-21T00:13:55.931Z,63.28125
2019-04-21T00:14:08.787Z,63.17749
2019-04-21T00:14:21.650Z,63.17749
2019-04-21T00:14:33.600Z,63.17749
2019-04-21T00:14:45.937Z,63.07373
2019-04-21T00:14:57.726Z,62.872314
2019-04-21T00:15:09.559Z,62.738037
2019-04-21T00:15:24.029Z,62.738037
2019-04-21T00:15:32.751Z,62.841797
2019-04-21T00:15:46.297Z,62.945557
2019-04-21T00:15:54.821Z,63.049316
2019-04-21T00:16:07.384Z,62.945557
2019-04-21T00:16:24.228Z,62.841797
2019-04-21T00:16:38.990Z,62.841797
2019-04-21T00:16:50.857Z,62.945557
2019-04-21T00:17:00.441Z,62.841797
2019-04-21T00:17:12.841Z,62.738037
2019-04-21T00:17:23.060Z,62.634277
2019-04-21T00:17:35.002Z,62.530518
2019-04-21T00:17:51.533Z,62.426758
2019-04-21T00:18:03.655Z,62.426758
2019-04-21T00:18:12.680Z,62.298584
2019-04-21T00:18:23.679Z,62.194824
2019-04-21T00:18:44.508Z,62.194824
2019-04-21T00:18:57.951Z,62.091064
2019-04-21T00:19:08.973Z,61.987305
2019-04-21T00:19:20.803Z,61.987305
2019-04-21T00:19:30.549Z,61.987305
2019-04-21T00:19:41.207Z,61.883545
2019-04-21T00:20:05.400Z,61.785889
2019-04-21T00:20:16.253Z,61.785889
2019-04-21T00:20:26.551Z,61.682129
2019-04-21T00:20:37.992Z,61.682129
2019-04-21T00:20:49.675Z,61.682129
2019-04-21T00:20:58.528Z,61.682129
2019-04-21T00:21:18.178Z,61.578369
2019-04-21T00:21:29.036Z,61.578369
2019-04-21T00:21:43.143Z,61.578369
2019-04-21T00:21:53.053Z,61.474609
2019-04-21T00:22:08.429Z,61.474609
2019-04-21T00:22:22.789Z,61.474609
2019-04-21T00:22:37.519Z,61.578369
2019-04-21T00:22:50.904Z,61.578369
2019-04-21T00:23:09.937Z,61.578369
2019-04-21T00:23:21.280Z,61.682129
2019-04-21T00:23:32.641Z,61.682129
2019-04-21T00:23:47.972Z,61.682129
2019-04-21T00:24:00.183Z,61.682129
2019-04-21T00:24:08.480Z,61.682129
2019-04-21T00:24:20.124Z,61.785889
2019-04-21T00:24:33.509Z,61.785889
2019-04-21T00:24:48.645Z,61.883545
2019-04-21T00:25:00.903Z,61.987305
2019-04-21T00:25:13.821Z,61.987305
2019-04-21T00:25:27.317Z,61.987305
2019-04-21T00:25:38.237Z,62.091064
2019-04-21T00:25:47.768Z,62.091064
2019-04-21T00:26:00.163Z,62.194824
2019-04-21T00:26:23.663Z,62.194824
2019-04-21T00:26:32.870Z,62.225342
2019-04-21T00:26:43.581Z,62.225342
2019-04-21T00:26:57.207Z,62.329102
2019-04-21T00:27:09.526Z,62.329102
2019-04-21T00:27:24.345Z,62.329102
2019-04-21T00:27:37.970Z,62.426758
2019-04-21T00:27:46.299Z,62.530518
2019-04-21T00:28:03.096Z,62.634277
2019-04-21T00:28:23.724Z,62.634277
2019-04-21T00:28:35.731Z,62.634277
2019-04-21T00:28:48.817Z,62.634277
2019-04-21T00:29:03.321Z,62.634277
2019-04-21T00:29:16.200Z,62.634277
2019-04-21T00:29:25.509Z,62.945557
2019-04-21T00:29:37.655Z,63.250732
2019-04-21T00:29:47.485Z,64.001465
2019-04-21T00:29:57.864Z,64.208984
2019-04-21T00:30:15.498Z,64.4104
2019-04-21T00:30:26.699Z,64.51416
2019-04-21T00:30:39.461Z,64.312744
2019-04-21T00:30:50.331Z,64.208984
2019-04-21T00:31:04.161Z,64.337158
2019-04-21T00:31:14.913Z,64.648438
2019-04-21T00:31:28.166Z,65.264893
2019-04-21T00:31:37.753Z,65.985107
2019-04-21T00:31:51.059Z,66.638184
2019-04-21T00:32:05.115Z,67.358398
2019-04-21T00:32:17.505Z,67.663574
2019-04-21T00:32:27.803Z,67.901611
2019-04-21T00:32:38.708Z,68.212891
2019-04-21T00:32:52.031Z,68.725586
2019-04-21T00:33:02.839Z,69.067383
2019-04-21T00:33:13.746Z,69.171143
2019-04-21T00:33:24.703Z,69.378662
2019-04-21T00:33:35.547Z,69.482422
2019-04-21T00:33:46.632Z,69.40918
2019-04-21T00:33:58.300Z,69.40918
2019-04-21T00:34:11.148Z,69.40918
2019-04-21T00:34:23.715Z,69.40918
2019-04-21T00:34:36.313Z,69.30542
2019-04-21T00:34:56.149Z,69.20166
2019-04-21T00:35:08.063Z,69.0979
2019-04-21T00:35:18.937Z,68.896484
2019-04-21T00:35:29.349Z,68.585205
2019-04-21T00:35:47.670Z,68.481445
2019-04-21T00:35:59.555Z,68.481445
2019-04-21T00:36:13.020Z,68.688965
2019-04-21T00:36:24.132Z,68.792725
2019-04-21T00:36:42.639Z,68.896484
2019-04-21T00:36:55.682Z,68.585205
2019-04-21T00:37:09.050Z,68.377686
2019-04-21T00:37:17.863Z,68.170166
2019-04-21T00:37:33.666Z,68.066406
2019-04-21T00:37:53.030Z,68.066406
2019-04-21T00:38:07.748Z,68.066406
2019-04-21T00:38:24.329Z,68.066406
2019-04-21T00:38:31.793Z,68.273926
2019-04-21T00:38:58.609Z,68.273926
2019-04-21T00:38:58.609Z,68.170166
2019-04-21T00:39:20.509Z,68.066406
2019-04-21T00:39:35.661Z,68.206787
2019-04-21T00:39:43.194Z,68.206787
2019-04-21T00:39:55.546Z,68.206787
2019-04-21T00:40:03.499Z,68.206787
2019-04-21T00:40:15.960Z,68.304443
2019-04-21T00:40:27.028Z,68.408203
2019-04-21T00:40:41.250Z,68.408203
2019-04-21T00:40:53.674Z,68.408203
2019-04-21T00:41:05.289Z,68.511963
2019-04-21T00:41:18.608Z,68.511963
2019-04-21T00:41:29.259Z,68.615723
2019-04-21T00:41:48.240Z,68.688965
2019-04-21T00:41:58.788Z,68.688965
2019-04-21T00:42:09.654Z,68.688965
2019-04-21T00:42:22.568Z,68.585205
2019-04-21T00:42:34.080Z,68.615723
2019-04-21T00:42:59.781Z,68.719482
2019-04-21T00:43:07.453Z,68.823242
2019-04-21T00:43:23.214Z,68.927002
2019-04-21T00:43:37.100Z,69.030762
2019-04-21T00:43:48.770Z,69.134521
2019-04-21T00:44:00.523Z,69.238281
2019-04-21T00:44:11.374Z,69.342041
2019-04-21T00:44:24.413Z,69.543457
2019-04-21T00:44:32.921Z,69.647217
2019-04-21T00:44:55.382Z,69.854736
2019-04-21T00:45:01.662Z,69.854736
2019-04-21T00:45:18.021Z,69.958496
2019-04-21T00:45:30.936Z,69.958496
2019-04-21T00:45:41.677Z,69.958496
2019-04-21T00:45:51.692Z,69.958496
2019-04-21T00:46:02.888Z,69.958496
2019-04-21T00:46:19.486Z,69.958496
2019-04-21T00:46:47.048Z,69.958496
2019-04-21T00:46:58.763Z,69.854736
2019-04-21T00:47:11.344Z,69.854736
2019-04-21T00:47:38.508Z,69.647217
2019-04-21T00:47:45.443Z,69.750977
2019-04-21T00:47:57.550Z,69.647217
2019-04-21T00:48:09.606Z,69.647217
2019-04-21T00:48:22.806Z,69.647217
2019-04-21T00:48:34.190Z,69.647217
2019-04-21T00:48:47.394Z,69.647217
2019-04-21T00:48:56.286Z,69.647217
2019-04-21T00:49:05.444Z,69.647217
2019-04-21T00:49:23.069Z,69.647217
2019-04-21T00:49:32.762Z,69.616699
2019-04-21T00:49:49.251Z,69.616699
2019-04-21T00:50:04.902Z,69.512939
2019-04-21T00:50:17.550Z,69.616699
2019-04-21T00:50:31.226Z,69.512939
2019-04-21T00:50:50.807Z,69.40918
2019-04-21T00:51:09.579Z,69.30542
2019-04-21T00:51:24.794Z,69.40918
2019-04-21T00:51:33.013Z,69.40918
2019-04-21T00:51:45.464Z,69.40918
2019-04-21T00:51:53.198Z,69.512939
2019-04-21T00:52:11.121Z,69.512939
2019-04-21T00:52:20.703Z,69.512939
2019-04-21T00:52:37.779Z,69.512939
2019-04-21T00:53:04.481Z,69.40918
2019-04-21T00:53:04.482Z,69.30542
2019-04-21T00:53:04.483Z,69.30542
2019-04-21T00:53:22.001Z,69.30542
2019-04-21T00:53:35.226Z,69.30542
2019-04-21T00:53:50.984Z,69.30542
2019-04-21T00:54:03.600Z,69.20166
2019-04-21T00:54:16.489Z,69.20166
2019-04-21T00:54:24.394Z,69.20166
2019-04-21T00:54:41.397Z,69.20166
2019-04-21T00:54:56.783Z,69.20166
2019-04-21T00:55:07.489Z,69.20166
2019-04-21T00:55:44.229Z,69.000244
2019-04-21T00:55:48.410Z,69.000244
2019-04-21T00:56:08.315Z,68.896484
2019-04-21T00:56:33.342Z,69.000244
2019-04-21T00:56:33.346Z,69.0979
2019-04-21T00:56:48.102Z,69.20166
2019-04-21T00:57:02.471Z,69.30542
2019-04-21T00:57:10.405Z,69.30542
2019-04-21T00:57:23.982Z,69.40918
2019-04-21T00:57:38.603Z,69.512939
2019-04-21T00:57:51.175Z,69.512939
2019-04-21T00:58:01.835Z,69.40918
2019-04-21T00:58:17.040Z,69.40918
2019-04-21T00:58:27.885Z,69.30542
2019-04-21T00:58:38.498Z,69.30542
2019-04-21T00:58:52.983Z,69.40918
2019-04-21T00:59:05.513Z,69.512939
2019-04-21T00:59:19.121Z,69.616699
2019-04-21T00:59:31.447Z,69.720459
2019-04-21T00:59:44.962Z,69.824219
2019-04-21T00:59:58.975Z,69.927979
2019-04-21T01:00:11.485Z,69.927979
2019-04-21T01:00:21.878Z,69.824219
2019-04-21T01:00:32.190Z,69.720459
2019-04-21T01:00:45.666Z,69.720459
2019-04-21T01:00:56.917Z,69.927979
2019-04-21T01:01:06.979Z,70.031738
2019-04-21T01:01:24.690Z,70.129395
2019-04-21T01:01:37.450Z,70.129395
2019-04-21T01:01:47.531Z,70.166016
2019-04-21T01:01:59.566Z,70.269775
2019-04-21T01:02:08.894Z,70.269775
2019-04-21T01:02:29.089Z,70.166016
2019-04-21T01:02:54.902Z,70.269775
2019-04-21T01:03:00.743Z,70.269775
2019-04-21T01:03:08.250Z,70.373535
2019-04-21T01:03:20.002Z,70.373535
2019-04-21T01:03:37.087Z,70.269775
2019-04-21T01:03:51.593Z,70.166016
2019-04-21T01:04:02.045Z,70.062256
2019-04-21T01:04:07.694Z,70.062256
2019-04-21T01:04:30.327Z,70.062256
2019-04-21T01:04:42.424Z,69.958496
2019-04-21T01:04:49.284Z,69.854736
2019-04-21T01:05:04.524Z,69.958496
2019-04-21T01:05:16.325Z,70.031738
2019-04-21T01:05:25.270Z,70.166016
2019-04-21T01:05:46.162Z,70.373535
2019-04-21T01:06:09.585Z,70.471191
2019-04-21T01:06:09.588Z,70.574951
2019-04-21T01:06:22.205Z,70.471191
2019-04-21T01:06:35.008Z,70.166016
2019-04-21T01:06:47.774Z,69.958496
2019-04-21T01:07:01.477Z,69.854736
2019-04-21T01:07:12.265Z,69.854736
2019-04-21T01:07:19.173Z,69.750977
2019-04-21T01:07:35.670Z,69.647217
2019-04-21T01:07:45.317Z,69.750977
2019-04-21T01:07:57.599Z,69.750977
2019-04-21T01:08:12.753Z,69.854736
2019-04-21T01:08:24.917Z,69.854736
2019-04-21T01:08:40.883Z,69.854736
2019-04-21T01:08:52.976Z,69.958496
2019-04-21T01:09:02.502Z,70.062256
2019-04-21T01:09:13.367Z,70.062256
2019-04-21T01:09:27.405Z,69.958496
2019-04-21T01:09:36.518Z,69.854736
2019-04-21T01:09:48.398Z,69.543457
2019-04-21T01:10:05.084Z,69.439697
2019-04-21T01:10:14.320Z,69.238281
2019-04-21T01:10:28.337Z,69.134521
2019-04-21T01:10:37.987Z,68.927002
2019-04-21T01:10:52.436Z,68.823242
2019-04-21T01:11:17.714Z,68.719482
2019-04-21T01:11:23.507Z,68.615723
2019-04-21T01:11:43.807Z,68.615723
2019-04-21T01:11:54.873Z,68.511963
2019-04-21T01:12:01.034Z,68.408203
2019-04-21T01:12:18.884Z,68.615723
2019-04-21T01:12:32.944Z,68.823242
2019-04-21T01:12:41.431Z,69.030762
2019-04-21T01:12:54.489Z,69.342041
2019-04-21T01:13:15.767Z,69.439697
2019-04-21T01:13:26.031Z,69.543457
2019-04-21T01:13:40.851Z,69.543457
2019-04-21T01:13:51.525Z,69.543457
2019-04-21T01:14:03.921Z,69.647217
2019-04-21T01:14:19.757Z,69.543457
2019-04-21T01:14:34.217Z,69.750977
2019-04-21T01:14:40.554Z,69.989014
2019-04-21T01:14:55.110Z,70.092773
2019-04-21T01:15:08.984Z,70.196533
2019-04-21T01:15:24.162Z,70.196533
2019-04-21T01:15:36.757Z,70.196533
2019-04-21T01:15:48.560Z,70.196533
2019-04-21T01:15:58.938Z,70.300293
2019-04-21T01:16:13.610Z,70.404053
2019-04-21T01:16:26.864Z,70.507812
2019-04-21T01:16:38.814Z,70.64209
2019-04-21T01:16:51.196Z,70.74585
2019-04-21T01:17:03.613Z,70.849609
2019-04-21T01:17:21.537Z,70.953369
2019-04-21T01:17:40.324Z,71.057129
2019-04-21T01:17:51.490Z,71.160889
2019-04-21T01:18:04.397Z,71.160889
2019-04-21T01:18:16.117Z,71.057129
2019-04-21T01:18:26.022Z,71.057129
2019-04-21T01:18:42.419Z,71.057129
2019-04-21T01:18:54.322Z,71.057129
2019-04-21T01:19:04.870Z,71.057129
2019-04-21T01:19:15.598Z,71.160889
2019-04-21T01:19:32.778Z,71.057129
2019-04-21T01:19:54.418Z,70.953369
2019-04-21T01:20:06.151Z,70.953369
2019-04-21T01:20:15.682Z,70.953369
2019-04-21T01:20:17.812Z,70.849609
2019-04-21T01:20:28.188Z,70.74585
2019-04-21T01:20:40.037Z,70.74585
2019-04-21T01:20:51.924Z,70.74585
2019-04-21T01:21:13.552Z,70.74585
2019-04-21T01:21:16.605Z,70.74585
2019-04-21T01:21:28.452Z,70.74585
2019-04-21T01:21:40.327Z,70.74585
2019-04-21T01:21:52.188Z,70.74585
2019-04-21T01:22:04.040Z,70.64209
2019-04-21T01:22:15.942Z,70.53833
2019-04-21T01:22:27.830Z,70.43457
2019-04-21T01:22:39.700Z,70.43457
2019-04-21T01:22:51.677Z,70.330811
2019-04-21T01:23:04.320Z,70.300293
2019-04-21T01:23:16.626Z,70.196533
2019-04-21T01:23:27.562Z,70.092773
2019-04-21T01:23:40.268Z,69.989014
2019-04-21T01:23:55.548Z,69.885254
2019-04-21T01:24:11.336Z,69.781494
2019-04-21T01:24:24.449Z,69.677734
2019-04-21T01:24:34.390Z,69.677734
2019-04-21T01:24:47.188Z,69.580078
2019-04-21T01:25:04.201Z,69.580078
2019-04-21T01:25:17.414Z,69.476318
2019-04-21T01:25:29.976Z,69.439697
2019-04-21T01:26:00.443Z,69.342041
2019-04-21T01:26:14.404Z,69.238281
2019-04-21T01:26:22.451Z,69.238281
2019-04-21T01:26:38.939Z,69.342041
2019-04-21T01:26:46.929Z,69.543457
2019-04-21T01:27:00.498Z,70.062256
2019-04-21T01:27:12.004Z,70.574951
2019-04-21T01:27:29.314Z,71.09375
2019-04-21T01:27:49.265Z,71.30127
2019-04-21T01:27:58.627Z,71.539307
2019-04-21T01:28:13.382Z,71.643066
2019-04-21T01:28:23.985Z,71.746826
2019-04-21T01:28:39.676Z,71.746826
2019-04-21T01:28:49.312Z,71.643066
2019-04-21T01:28:59.661Z,71.746826
2019-04-21T01:29:15.339Z,71.850586
2019-04-21T01:29:25.281Z,71.746826
2019-04-21T01:29:45.673Z,71.850586
2019-04-21T01:29:59.577Z,72.058105
2019-04-21T01:30:11.353Z,72.259521
2019-04-21T01:30:22.022Z,72.363281
2019-04-21T01:30:34.027Z,72.467041
2019-04-21T01:30:44.672Z,72.570801
2019-04-21T01:31:02.207Z,72.674561
2019-04-21T01:31:13.011Z,72.77832
2019-04-21T01:31:22.343Z,72.77832
2019-04-21T01:31:35.935Z,72.77832
2019-04-21T01:31:47.883Z,72.77832
2019-04-21T01:32:04.928Z,72.77832
2019-04-21T01:32:34.167Z,72.674561
2019-04-21T01:32:34.168Z,72.674561
2019-04-21T01:32:48.013Z,72.467041
2019-04-21T01:32:58.874Z,72.363281
2019-04-21T01:33:12.166Z,72.363281
2019-04-21T01:33:25.825Z,72.259521
2019-04-21T01:33:37.823Z,72.259521
2019-04-21T01:33:50.229Z,72.058105
2019-04-21T01:34:02.469Z,71.850586
2019-04-21T01:34:14.607Z,71.746826
2019-04-21T01:34:28.645Z,71.643066
2019-04-21T01:34:38.784Z,71.539307
2019-04-21T01:34:50.839Z,71.539307
2019-04-21T01:35:02.220Z,71.539307
2019-04-21T01:35:14.468Z,71.539307
2019-04-21T01:35:25.263Z,71.539307
2019-04-21T01:35:43.643Z,71.539307
2019-04-21T01:35:53.520Z,71.539307
2019-04-21T01:36:17.610Z,71.643066
2019-04-21T01:36:29.402Z,71.643066
2019-04-21T01:36:44.422Z,71.435547
2019-04-21T01:36:58.303Z,71.228027
2019-04-21T01:37:03.703Z,71.020508
2019-04-21T01:37:32.470Z,70.819092
2019-04-21T01:37:43.640Z,70.715332
2019-04-21T01:38:01.691Z,70.74585
2019-04-21T01:38:06.326Z,70.74585
2019-04-21T01:38:21.449Z,70.64209
2019-04-21T01:38:34.075Z,70.53833
2019-04-21T01:38:47.981Z,70.53833
2019-04-21T01:38:53.561Z,70.43457
2019-04-21T01:39:12.958Z,70.43457
2019-04-21T01:39:19.420Z,70.53833
2019-04-21T01:39:34.035Z,70.53833
2019-04-21T01:39:46.793Z,70.64209
2019-04-21T01:39:59.903Z,70.64209
2019-04-21T01:40:16.032Z,70.74585
2019-04-21T01:40:28.637Z,70.776367
2019-04-21T01:40:39.293Z,70.672607
2019-04-21T01:40:52.548Z,70.568848
2019-04-21T01:41:06.813Z,70.568848
2019-04-21T01:41:19.693Z,70.568848
2019-04-21T01:41:31.174Z,70.568848
2019-04-21T01:41:44.613Z,70.672607
2019-04-21T01:41:56.868Z,70.776367
2019-04-21T01:42:08.660Z,71.087646
2019-04-21T01:42:20.870Z,71.429443
2019-04-21T01:42:31.229Z,71.740723
2019-04-21T01:42:45.042Z,72.052002
2019-04-21T01:42:55.481Z,72.155762
2019-04-21T01:43:07.258Z,72.259521
2019-04-21T01:43:23.161Z,72.259521
2019-04-21T01:43:33.158Z,72.259521
2019-04-21T01:43:48.672Z,72.259521
2019-04-21T01:44:00.330Z,72.259521
2019-04-21T01:44:12.001Z,72.259521
2019-04-21T01:44:35.897Z,72.259521
2019-04-21T01:44:41.530Z,72.259521
2019-04-21T01:44:52.118Z,72.2229
2019-04-21T01:45:03.817Z,72.2229
2019-04-21T01:45:14.451Z,72.2229
2019-04-21T01:45:31.544Z,72.015381
2019-04-21T01:45:43.310Z,71.813965
2019-04-21T01:45:53.349Z,71.606445
2019-04-21T01:46:08.915Z,71.398926
2019-04-21T01:46:19.035Z,71.295166
2019-04-21T01:46:33.411Z,71.295166
2019-04-21T01:46:45.288Z,71.191406
2019-04-21T01:46:58.076Z,71.191406
2019-04-21T01:47:09.959Z,71.191406
2019-04-21T01:47:20.006Z,71.191406
2019-04-21T01:47:35.735Z,71.191406
2019-04-21T01:47:50.503Z,71.087646
2019-04-21T01:48:00.946Z,70.953369
2019-04-21T01:48:08.893Z,70.849609
2019-04-21T01:48:23.930Z,70.74585
2019-04-21T01:48:38.930Z,70.64209
2019-04-21T01:48:52.402Z,70.64209
2019-04-21T01:49:01.407Z,70.53833
2019-04-21T01:49:11.315Z,70.53833
2019-04-21T01:49:26.279Z,70.53833
2019-04-21T01:49:36.647Z,70.43457
2019-04-21T01:49:49.978Z,70.227051
2019-04-21T01:50:02.330Z,70.123291
2019-04-21T01:50:24.218Z,70.123291
2019-04-21T01:50:34.261Z,70.025635
2019-04-21T01:50:46.161Z,69.921875
2019-04-21T01:51:00.418Z,69.885254
2019-04-21T01:51:12.771Z,69.781494
2019-04-21T01:51:21.976Z,69.781494
2019-04-21T01:51:39.491Z,69.677734
2019-04-21T01:52:08.634Z,69.677734
2019-04-21T01:52:17.439Z,69.677734
2019-04-21T01:52:29.801Z,69.580078
2019-04-21T01:52:49.716Z,69.476318
2019-04-21T01:53:01.808Z,69.372559
2019-04-21T01:53:17.137Z,69.372559
2019-04-21T01:53:30.450Z,69.268799
2019-04-21T01:53:42.079Z,69.165039
2019-04-21T01:53:48.004Z,69.165039
2019-04-21T01:54:03.163Z,69.165039
2019-04-21T01:54:21.587Z,69.165039
2019-04-21T01:54:28.360Z,69.061279
2019-04-21T01:54:40.214Z,69.165039
2019-04-21T01:54:54.759Z,69.134521
2019-04-21T01:55:05.850Z,69.134521
2019-04-21T01:55:17.553Z,69.030762
2019-04-21T01:55:35.427Z,69.134521
2019-04-21T01:55:48.021Z,69.134521
2019-04-21T01:56:00.188Z,69.030762
2019-04-21T01:56:11.534Z,68.823242
2019-04-21T01:56:23.657Z,68.719482
2019-04-21T01:56:33.722Z,68.719482
2019-04-21T01:56:50.888Z,68.615723
2019-04-21T01:57:01.485Z,68.615723
2019-04-21T01:57:12.198Z,68.615723
2019-04-21T01:57:22.228Z,68.615723
2019-04-21T01:57:37.191Z,68.615723
2019-04-21T01:57:49.158Z,68.615723
2019-04-21T01:58:01.249Z,68.511963
2019-04-21T01:58:14.918Z,68.511963
2019-04-21T01:58:25.338Z,68.408203
2019-04-21T01:58:36.187Z,68.304443
2019-04-21T01:58:48.065Z,68.304443
2019-04-21T01:58:59.140Z,68.304443
2019-04-21T01:59:10.704Z,68.304443
2019-04-21T01:59:30.313Z,68.304443
2019-04-21T01:59:42.388Z,68.206787
2019-04-21T01:59:54.800Z,68.103027
2019-04-21T02:00:04.378Z,68.103027
2019-04-21T02:00:16.735Z,68.206787
2019-04-21T02:00:37.734Z,68.304443
2019-04-21T02:00:51.651Z,68.304443
2019-04-21T02:01:00.673Z,68.408203
2019-04-21T02:01:12.679Z,68.511963
2019-04-21T02:01:33.152Z,68.511963
2019-04-21T02:01:45.666Z,68.511963
2019-04-21T02:02:00.011Z,68.511963
2019-04-21T02:02:10.253Z,68.511963
2019-04-21T02:02:22.789Z,68.511963
2019-04-21T02:02:34.632Z,68.615723
2019-04-21T02:02:54.007Z,68.615723
2019-04-21T02:03:06.775Z,68.615723
2019-04-21T02:03:20.853Z,68.511963
2019-04-21T02:03:59.543Z,68.615723
2019-04-21T02:04:23.815Z,68.615723
2019-04-21T02:04:35.842Z,68.615723
2019-04-21T02:04:47.171Z,68.511963
2019-04-21T02:05:02.953Z,68.511963
2019-04-21T02:05:16.814Z,68.511963
2019-04-21T02:05:25.695Z,68.511963
2019-04-21T02:05:36.198Z,68.511963
2019-04-21T02:05:50.881Z,68.511963
2019-04-21T02:06:04.246Z,68.408203
2019-04-21T02:06:16.966Z,68.408203
2019-04-21T02:06:26.929Z,68.408203
2019-04-21T02:06:38.645Z,68.408203
2019-04-21T02:06:50.053Z,68.304443
2019-04-21T02:07:02.631Z,68.304443
2019-04-21T02:07:14.463Z,68.206787
2019-04-21T02:07:32.441Z,68.206787
2019-04-21T02:07:44.022Z,68.206787
2019-04-21T02:07:54.506Z,68.103027
2019-04-21T02:08:04.699Z,68.103027
2019-04-21T02:08:21.349Z,67.999268
2019-04-21T02:08:31.009Z,67.999268
2019-04-21T02:08:41.286Z,67.999268
2019-04-21T02:08:57.578Z,67.96875
2019-04-21T02:09:09.558Z,67.86499
2019-04-21T02:09:18.724Z,67.76123
2019-04-21T02:09:37.084Z,67.76123
2019-04-21T02:09:49.077Z,67.657471
2019-04-21T02:10:04.625Z,67.553711
2019-04-21T02:10:17.458Z,67.449951
2019-04-21T02:10:34.104Z,67.449951
2019-04-21T02:10:45.943Z,67.346191
2019-04-21T02:10:59.723Z,67.346191
2019-04-21T02:11:11.017Z,67.242432
2019-04-21T02:11:22.916Z,67.211914
2019-04-21T02:11:35.242Z,67.108154
2019-04-21T02:11:50.069Z,67.004395
2019-04-21T02:11:59.849Z,67.004395
2019-04-21T02:12:13.198Z,66.906738
2019-04-21T02:12:25.097Z,66.802979
2019-04-21T02:12:37.703Z,66.802979
2019-04-21T02:12:50.572Z,66.906738
2019-04-21T02:13:03.055Z,66.906738
2019-04-21T02:13:11.597Z,66.906738
2019-04-21T02:13:21.229Z,66.906738
2019-04-21T02:13:46.511Z,66.906738
2019-04-21T02:13:57.061Z,66.802979
2019-04-21T02:14:09.731Z,66.906738
2019-04-21T02:14:22.346Z,66.906738
2019-04-21T02:14:37.931Z,67.004395
2019-04-21T02:14:50.147Z,66.906738
2019-04-21T02:15:16.452Z,67.004395
2019-04-21T02:15:16.452Z,66.906738
2019-04-21T02:15:29.277Z,67.004395
2019-04-21T02:15:55.318Z,67.004395
2019-04-21T02:15:55.351Z,67.108154
2019-04-21T02:16:06.367Z,67.138672
2019-04-21T02:16:16.763Z,67.138672
2019-04-21T02:16:27.974Z,67.108154
2019-04-21T02:16:40.282Z,67.138672
2019-04-21T02:16:51.877Z,67.211914
2019-04-21T02:17:05.082Z,67.108154
2019-04-21T02:17:15.970Z,67.242432
2019-04-21T02:17:27.566Z,67.242432
2019-04-21T02:17:46.796Z,67.242432
2019-04-21T02:17:58.887Z,67.242432
2019-04-21T02:18:11.740Z,67.242432
2019-04-21T02:18:21.875Z,67.138672
2019-04-21T02:18:33.184Z,67.138672
2019-04-21T02:18:49.254Z,67.138672
2019-04-21T02:18:57.944Z,67.138672
2019-04-21T02:19:08.988Z,67.242432
2019-04-21T02:19:23.078Z,67.242432
2019-04-21T02:19:35.736Z,67.138672
2019-04-21T02:19:48.984Z,67.242432
2019-04-21T02:19:59.909Z,67.242432
2019-04-21T02:20:11.659Z,67.346191
2019-04-21T02:20:21.381Z,67.449951
2019-04-21T02:20:31.595Z,67.449951
2019-04-21T02:20:44.232Z,67.449951
2019-04-21T02:20:57.855Z,67.449951
2019-04-21T02:21:17.702Z,67.346191
2019-04-21T02:21:31.238Z,67.346191
2019-04-21T02:21:37.785Z,67.346191
2019-04-21T02:21:54.091Z,67.449951
2019-04-21T02:22:07.894Z,67.449951
2019-04-21T02:22:34.921Z,67.449951
2019-04-21T02:22:57.218Z,67.553711
2019-04-21T02:23:09.793Z,67.553711
2019-04-21T02:23:17.535Z,67.553711
2019-04-21T02:23:26.153Z,67.419434
2019-04-21T02:23:37.659Z,67.449951
2019-04-21T02:23:45.492Z,67.449951
2019-04-21T02:23:58.525Z,67.449951
2019-04-21T02:24:11.248Z,67.449951
2019-04-21T02:24:28.461Z,67.449951
2019-04-21T02:24:41.846Z,67.553711
2019-04-21T02:25:00.824Z,67.657471
2019-04-21T02:25:08.112Z,67.657471
2019-04-21T02:25:13.755Z,67.657471
2019-04-21T02:25:25.666Z,67.657471
2019-04-21T02:25:38.237Z,67.657471
2019-04-21T02:25:50.449Z,67.657471
2019-04-21T02:26:03.113Z,67.657471
2019-04-21T02:26:15.909Z,67.657471
2019-04-21T02:26:33.351Z,67.76123
2019-04-21T02:26:39.649Z,67.76123
2019-04-21T02:26:52.562Z,67.76123
2019-04-21T02:27:06.234Z,67.86499
2019-04-21T02:27:23.265Z,67.895508
2019-04-21T02:27:35.883Z,67.999268
2019-04-21T02:27:49.461Z,67.999268
2019-04-21T02:28:03.036Z,68.103027
2019-04-21T02:28:19.146Z,68.408203
2019-04-21T02:28:34.974Z,68.615723
2019-04-21T02:28:49.668Z,68.719482
2019-04-21T02:28:55.130Z,68.615723
2019-04-21T02:29:06.689Z,68.615723
2019-04-21T02:29:20.424Z,68.615723